<?xml version="1.0" encoding="UTF-8" standalone="no" ?>
<gpx xmlns="http://www.topografix.com/GPX/1/1" xmlns:xsi="http://www.w3.org/2001/XMLSchema-instance" xsi:schemaLocation="http://www.topografix.com/GPX/1/1 http://www.topografix.com/GPX/1/1/gpx.xsd" version="1.1" creator="VisuGPX - https://www.visugpx.com">
  <metadata>
    <name>Rando LN</name>
  </metadata>
  <trk>
    <name><![CDATA[Le bugue]]></name>
    <extensions>
      <line xmlns="http://www.topografix.com/GPX/gpx_style/0/2">
        <color>44ff00</color>
        <width>4</width>
      </line>
    </extensions>
    <trkseg>
      <trkpt lat="44.8932" lon="0.87972">
        <ele>159.6</ele>
      </trkpt>
      <trkpt lat="44.8932" lon="0.87972">
        <ele>159.6</ele>
      </trkpt>
      <trkpt lat="44.8932" lon="0.87972">
        <ele>159.6</ele>
      </trkpt>
      <trkpt lat="44.8932" lon="0.87972">
        <ele>159.6</ele>
      </trkpt>
      <trkpt lat="44.8932" lon="0.87972">
        <ele>159.6</ele>
      </trkpt>
      <trkpt lat="44.8932" lon="0.87972">
        <ele>159.6</ele>
      </trkpt>
      <trkpt lat="44.89164" lon="0.879">
        <ele>146.6</ele>
      </trkpt>
      <trkpt lat="44.89121" lon="0.87921">
        <ele>140.7</ele>
      </trkpt>
      <trkpt lat="44.89099" lon="0.88015">
        <ele>133.6</ele>
      </trkpt>
      <trkpt lat="44.89057" lon="0.88111">
        <ele>127.5</ele>
      </trkpt>
      <trkpt lat="44.88989" lon="0.88232">
        <ele>119.88</ele>
        <time>2017-03-29T16:46:52Z</time>
      </trkpt>
      <trkpt lat="44.88923" lon="0.88426">
        <ele>114.21</ele>
        <time>2017-03-29T16:47:12Z</time>
      </trkpt>
      <trkpt lat="44.88871" lon="0.8848">
        <ele>109.782</ele>
        <time>2017-03-29T16:47:32Z</time>
      </trkpt>
      <trkpt lat="44.88746" lon="0.88726">
        <ele>75.734</ele>
        <time>2017-03-29T16:47:52Z</time>
      </trkpt>
      <trkpt lat="44.88736" lon="0.88853">
        <ele>71.455</ele>
        <time>2017-03-29T16:48:12Z</time>
      </trkpt>
      <trkpt lat="44.88723" lon="0.88883">
        <ele>76.721</ele>
        <time>2017-03-29T16:48:32Z</time>
      </trkpt>
      <trkpt lat="44.8868" lon="0.889">
        <ele>84.173</ele>
        <time>2017-03-29T16:48:52Z</time>
      </trkpt>
      <trkpt lat="44.88633" lon="0.88932">
        <ele>91.715</ele>
        <time>2017-03-29T16:49:12Z</time>
      </trkpt>
      <trkpt lat="44.88622" lon="0.88955">
        <ele>95.865</ele>
        <time>2017-03-29T16:49:32Z</time>
      </trkpt>
      <trkpt lat="44.88619" lon="0.88982">
        <ele>100.211</ele>
        <time>2017-03-29T16:49:52Z</time>
      </trkpt>
      <trkpt lat="44.88603" lon="0.89012">
        <ele>102.508</ele>
        <time>2017-03-29T16:50:12Z</time>
      </trkpt>
      <trkpt lat="44.88603" lon="0.89012">
        <ele>102.508</ele>
        <time>2017-03-29T16:50:12Z</time>
      </trkpt>
      <trkpt lat="44.88603" lon="0.89012">
        <ele>102.508</ele>
        <time>2017-03-29T16:50:12Z</time>
      </trkpt>
      <trkpt lat="44.88603" lon="0.89012">
        <ele>102.508</ele>
        <time>2017-03-29T16:50:12Z</time>
      </trkpt>
      <trkpt lat="44.88603" lon="0.89012">
        <ele>102.508</ele>
        <time>2017-03-29T16:50:12Z</time>
      </trkpt>
      <trkpt lat="44.88603" lon="0.89012">
        <ele>102.508</ele>
        <time>2017-03-29T16:50:12Z</time>
      </trkpt>
      <trkpt lat="44.88627" lon="0.89033">
        <ele>104.537</ele>
        <time>2017-03-29T16:50:32Z</time>
      </trkpt>
      <trkpt lat="44.88637" lon="0.89022">
        <ele>105.452</ele>
        <time>2017-03-29T16:50:52Z</time>
      </trkpt>
      <trkpt lat="44.88651" lon="0.89045">
        <ele>107.522</ele>
        <time>2017-03-29T16:51:12Z</time>
      </trkpt>
      <trkpt lat="44.88697" lon="0.89065">
        <ele>110.874</ele>
        <time>2017-03-29T16:51:32Z</time>
      </trkpt>
      <trkpt lat="44.88732" lon="0.89106">
        <ele>108.546</ele>
        <time>2017-03-29T16:51:52Z</time>
      </trkpt>
      <trkpt lat="44.88836" lon="0.89204">
        <ele>121.227</ele>
        <time>2017-03-29T16:52:12Z</time>
      </trkpt>
      <trkpt lat="44.88893" lon="0.89224">
        <ele>123.573</ele>
        <time>2017-03-29T16:52:32Z</time>
      </trkpt>
      <trkpt lat="44.88986" lon="0.89301">
        <ele>117.425</ele>
        <time>2017-03-29T16:52:52Z</time>
      </trkpt>
      <trkpt lat="44.8904" lon="0.89325">
        <ele>116.729</ele>
        <time>2017-03-29T16:53:12Z</time>
      </trkpt>
      <trkpt lat="44.89215" lon="0.89438">
        <ele>119.2</ele>
        <time>2017-03-29T16:53:32Z</time>
      </trkpt>
      <trkpt lat="44.8939" lon="0.89535">
        <ele>121.02</ele>
        <time>2017-03-29T16:53:52Z</time>
      </trkpt>
      <trkpt lat="44.89429" lon="0.89579">
        <ele>123.408</ele>
        <time>2020-03-06T14:16:27Z</time>
      </trkpt>
      <trkpt lat="44.89609" lon="0.89534">
        <ele>113.288</ele>
        <time>2020-03-06T14:16:47Z</time>
      </trkpt>
      <trkpt lat="44.89686" lon="0.89485">
        <ele>108.353</ele>
        <time>2020-03-06T14:17:07Z</time>
      </trkpt>
      <trkpt lat="44.89845" lon="0.89409">
        <ele>107.753</ele>
        <time>2020-03-06T14:17:27Z</time>
      </trkpt>
      <trkpt lat="44.8997" lon="0.89384">
        <ele>109.365</ele>
        <time>2020-03-06T14:17:47Z</time>
      </trkpt>
      <trkpt lat="44.90077" lon="0.89377">
        <ele>112.477</ele>
        <time>2020-03-06T14:18:07Z</time>
      </trkpt>
      <trkpt lat="44.9019" lon="0.89167">
        <ele>118.338</ele>
        <time>2020-03-06T14:18:27Z</time>
      </trkpt>
      <trkpt lat="44.90244" lon="0.89027">
        <ele>124.664</ele>
        <time>2020-03-06T14:18:47Z</time>
      </trkpt>
      <trkpt lat="44.90316" lon="0.88933">
        <ele>127.656</ele>
        <time>2020-03-06T14:19:07Z</time>
      </trkpt>
      <trkpt lat="44.90382" lon="0.88893">
        <ele>128.282</ele>
        <time>2020-03-06T14:19:27Z</time>
      </trkpt>
      <trkpt lat="44.90513" lon="0.88886">
        <ele>136.243</ele>
        <time>2020-03-06T14:19:47Z</time>
      </trkpt>
      <trkpt lat="44.90731" lon="0.88822">
        <ele>150.917</ele>
        <time>2020-03-06T14:20:07Z</time>
      </trkpt>
      <trkpt lat="44.90756" lon="0.88741">
        <ele>151.808</ele>
        <time>2020-03-06T14:20:27Z</time>
      </trkpt>
      <trkpt lat="44.90796" lon="0.88674">
        <ele>152.224</ele>
        <time>2020-03-06T14:20:47Z</time>
      </trkpt>
      <trkpt lat="44.90796" lon="0.88674">
        <ele>152.224</ele>
        <time>2020-03-06T14:20:47Z</time>
      </trkpt>
      <trkpt lat="44.90796" lon="0.88674">
        <ele>152.224</ele>
        <time>2020-03-06T14:20:47Z</time>
      </trkpt>
      <trkpt lat="44.90796" lon="0.88674">
        <ele>152.224</ele>
        <time>2020-03-06T14:20:47Z</time>
      </trkpt>
      <trkpt lat="44.90782" lon="0.8862">
        <ele>149.999</ele>
        <time>2020-03-06T14:21:07Z</time>
      </trkpt>
      <trkpt lat="44.90684" lon="0.88516">
        <ele>158.339</ele>
        <time>2020-03-06T14:21:27Z</time>
      </trkpt>
      <trkpt lat="44.90631" lon="0.8846">
        <ele>162.441</ele>
        <time>2020-03-06T14:21:47Z</time>
      </trkpt>
      <trkpt lat="44.90606" lon="0.88403">
        <ele>164.673</ele>
        <time>2020-03-06T14:22:07Z</time>
      </trkpt>
      <trkpt lat="44.90583" lon="0.88309">
        <ele>165.944</ele>
        <time>2020-03-06T14:22:27Z</time>
      </trkpt>
      <trkpt lat="44.90493" lon="0.88221">
        <ele>171.67</ele>
        <time>2020-03-06T14:22:47Z</time>
      </trkpt>
      <trkpt lat="44.90378" lon="0.8816">
        <ele>172.972</ele>
        <time>2020-03-06T14:23:07Z</time>
      </trkpt>
      <trkpt lat="44.90309" lon="0.88156">
        <ele>170.378</ele>
        <time>2020-03-06T14:23:27Z</time>
      </trkpt>
      <trkpt lat="44.90371" lon="0.88114">
        <ele>172.333</ele>
        <time>2020-03-06T14:23:47Z</time>
      </trkpt>
      <trkpt lat="44.90432" lon="0.88091">
        <ele>176.326</ele>
        <time>2020-03-06T14:24:07Z</time>
      </trkpt>
      <trkpt lat="44.90485" lon="0.88049">
        <ele>179.908</ele>
        <time>2020-03-06T14:24:27Z</time>
      </trkpt>
      <trkpt lat="44.90564" lon="0.88015">
        <ele>185.313</ele>
        <time>2020-03-06T14:24:47Z</time>
      </trkpt>
      <trkpt lat="44.90624" lon="0.87893">
        <ele>186.528</ele>
        <time>2020-03-06T14:25:07Z</time>
      </trkpt>
      <trkpt lat="44.90661" lon="0.87864">
        <ele>185.938</ele>
        <time>2020-03-06T14:25:27Z</time>
      </trkpt>
      <trkpt lat="44.90803" lon="0.87789">
        <ele>188.66</ele>
        <time>2020-03-06T14:25:47Z</time>
      </trkpt>
      <trkpt lat="44.90845" lon="0.87753">
        <ele>192.972</ele>
        <time>2020-03-06T14:26:07Z</time>
      </trkpt>
      <trkpt lat="44.90912" lon="0.87729">
        <ele>196.413</ele>
        <time>2020-03-06T14:26:27Z</time>
      </trkpt>
      <trkpt lat="44.90934" lon="0.87707">
        <ele>197.349</ele>
        <time>2020-03-06T14:26:47Z</time>
      </trkpt>
      <trkpt lat="44.91024" lon="0.87748">
        <ele>198.231</ele>
        <time>2020-03-06T14:27:07Z</time>
      </trkpt>
      <trkpt lat="44.91074" lon="0.87881">
        <ele>197.392</ele>
        <time>2020-03-06T14:27:27Z</time>
      </trkpt>
      <trkpt lat="44.91148" lon="0.88023">
        <ele>197.773</ele>
        <time>2020-03-06T14:27:47Z</time>
      </trkpt>
      <trkpt lat="44.91226" lon="0.88143">
        <ele>203.52</ele>
        <time>2020-03-06T14:28:07Z</time>
      </trkpt>
      <trkpt lat="44.91269" lon="0.88247">
        <ele>206.808</ele>
        <time>2020-03-06T14:28:27Z</time>
      </trkpt>
      <trkpt lat="44.91285" lon="0.88347">
        <ele>205.855</ele>
        <time>2020-03-06T14:28:47Z</time>
      </trkpt>
      <trkpt lat="44.91279" lon="0.88473">
        <ele>203.12</ele>
        <time>2020-03-06T14:29:07Z</time>
      </trkpt>
      <trkpt lat="44.9132" lon="0.88625">
        <ele>193.54</ele>
        <time>2020-03-06T14:29:27Z</time>
      </trkpt>
      <trkpt lat="44.9132" lon="0.88677">
        <ele>192.582</ele>
        <time>2020-03-06T14:29:47Z</time>
      </trkpt>
      <trkpt lat="44.91321" lon="0.88679">
        <ele>192.2</ele>
      </trkpt>
      <trkpt lat="44.9132" lon="0.88677">
        <ele>192.582</ele>
        <time>2020-03-06T14:29:47Z</time>
      </trkpt>
      <trkpt lat="44.91297" lon="0.88774">
        <ele>190.414</ele>
        <time>2020-03-06T14:30:07Z</time>
      </trkpt>
      <trkpt lat="44.91282" lon="0.88808">
        <ele>189.485</ele>
        <time>2020-03-06T14:30:27Z</time>
      </trkpt>
      <trkpt lat="44.91268" lon="0.88917">
        <ele>184.631</ele>
        <time>2020-03-06T14:30:47Z</time>
      </trkpt>
      <trkpt lat="44.91276" lon="0.88984">
        <ele>176.733</ele>
        <time>2020-03-06T14:31:07Z</time>
      </trkpt>
      <trkpt lat="44.91266" lon="0.89142">
        <ele>172.318</ele>
        <time>2020-03-06T14:31:27Z</time>
      </trkpt>
      <trkpt lat="44.91309" lon="0.89234">
        <ele>162.598</ele>
        <time>2020-03-06T14:31:47Z</time>
      </trkpt>
      <trkpt lat="44.91361" lon="0.8928">
        <ele>155.917</ele>
        <time>2020-03-06T14:32:07Z</time>
      </trkpt>
      <trkpt lat="44.91385" lon="0.89368">
        <ele>152.908</ele>
        <time>2017-03-29T17:09:12Z</time>
      </trkpt>
      <trkpt lat="44.9141" lon="0.89429">
        <ele>151.337</ele>
        <time>2017-03-29T17:09:32Z</time>
      </trkpt>
      <trkpt lat="44.91478" lon="0.89673">
        <ele>129.682</ele>
        <time>2017-03-29T17:09:52Z</time>
      </trkpt>
      <trkpt lat="44.91526" lon="0.89786">
        <ele>117.922</ele>
        <time>2017-03-29T17:10:12Z</time>
      </trkpt>
      <trkpt lat="44.91541" lon="0.89802">
        <ele>115.874</ele>
        <time>2017-03-29T17:10:32Z</time>
      </trkpt>
      <trkpt lat="44.91705" lon="0.89908">
        <ele>98.776</ele>
        <time>2017-03-29T17:10:52Z</time>
      </trkpt>
      <trkpt lat="44.91749" lon="0.89962">
        <ele>90.067</ele>
        <time>2017-03-29T17:11:12Z</time>
      </trkpt>
      <trkpt lat="44.91769" lon="0.89975">
        <ele>84.923</ele>
        <time>2017-03-29T17:11:32Z</time>
      </trkpt>
      <trkpt lat="44.91776" lon="0.9002">
        <ele>81.675</ele>
        <time>2017-03-29T17:11:52Z</time>
      </trkpt>
      <trkpt lat="44.918" lon="0.89961">
        <ele>81.017</ele>
        <time>2017-03-29T17:12:12Z</time>
      </trkpt>
      <trkpt lat="44.91825" lon="0.89857">
        <ele>86.487</ele>
        <time>2017-03-29T17:12:32Z</time>
      </trkpt>
      <trkpt lat="44.91829" lon="0.89783">
        <ele>89.815</ele>
        <time>2017-03-29T17:12:52Z</time>
      </trkpt>
      <trkpt lat="44.91846" lon="0.89786">
        <ele>87.208</ele>
        <time>2017-03-29T17:13:12Z</time>
      </trkpt>
      <trkpt lat="44.9187" lon="0.89801">
        <ele>84.877</ele>
        <time>2017-03-29T17:13:32Z</time>
      </trkpt>
      <trkpt lat="44.9191" lon="0.89799">
        <ele>84.042</ele>
        <time>2017-03-29T17:13:52Z</time>
      </trkpt>
      <trkpt lat="44.91936" lon="0.89789">
        <ele>85.572</ele>
        <time>2017-03-29T17:14:12Z</time>
      </trkpt>
      <trkpt lat="44.91957" lon="0.89741">
        <ele>88.574</ele>
        <time>2017-03-29T17:14:32Z</time>
      </trkpt>
      <trkpt lat="44.91984" lon="0.89744">
        <ele>90.936</ele>
        <time>2017-03-29T17:14:52Z</time>
      </trkpt>
      <trkpt lat="44.91998" lon="0.89748">
        <ele>91.897</ele>
        <time>2017-03-29T17:15:12Z</time>
      </trkpt>
      <trkpt lat="44.92057" lon="0.89769">
        <ele>95.013</ele>
        <time>2017-03-29T17:15:32Z</time>
      </trkpt>
      <trkpt lat="44.92033" lon="0.89943">
        <ele>118.045</ele>
        <time>2017-03-29T17:15:52Z</time>
      </trkpt>
      <trkpt lat="44.92019" lon="0.9012">
        <ele>150.786</ele>
        <time>2017-03-29T17:16:12Z</time>
      </trkpt>
      <trkpt lat="44.92" lon="0.90117">
        <ele>149.86</ele>
        <time>2017-03-29T17:16:32Z</time>
      </trkpt>
      <trkpt lat="44.91992" lon="0.90213">
        <ele>157.826</ele>
        <time>2017-03-29T17:16:52Z</time>
      </trkpt>
      <trkpt lat="44.91977" lon="0.90286">
        <ele>163.208</ele>
        <time>2017-03-29T17:17:12Z</time>
      </trkpt>
      <trkpt lat="44.91972" lon="0.90321">
        <ele>162.454</ele>
        <time>2017-03-29T17:17:32Z</time>
      </trkpt>
      <trkpt lat="44.92012" lon="0.90385">
        <ele>163.979</ele>
        <time>2017-03-29T17:17:52Z</time>
      </trkpt>
      <trkpt lat="44.92085" lon="0.90358">
        <ele>167.179</ele>
        <time>2017-03-29T17:18:12Z</time>
      </trkpt>
      <trkpt lat="44.92144" lon="0.90372">
        <ele>165.761</ele>
        <time>2017-03-29T17:18:32Z</time>
      </trkpt>
      <trkpt lat="44.92211" lon="0.90437">
        <ele>168.123</ele>
        <time>2017-03-29T17:18:52Z</time>
      </trkpt>
      <trkpt lat="44.92256" lon="0.90452">
        <ele>167.094</ele>
        <time>2017-03-29T17:19:12Z</time>
      </trkpt>
      <trkpt lat="44.92354" lon="0.90531">
        <ele>170.51</ele>
        <time>2017-03-29T17:19:32Z</time>
      </trkpt>
      <trkpt lat="44.92374" lon="0.90573">
        <ele>173.942</ele>
        <time>2017-03-29T17:19:52Z</time>
      </trkpt>
      <trkpt lat="44.92383" lon="0.90639">
        <ele>179.697</ele>
        <time>2017-03-29T17:20:12Z</time>
      </trkpt>
      <trkpt lat="44.92426" lon="0.90774">
        <ele>178.623</ele>
        <time>2017-03-29T17:20:32Z</time>
      </trkpt>
      <trkpt lat="44.92384" lon="0.90959">
        <ele>177.825</ele>
        <time>2017-03-29T17:20:52Z</time>
      </trkpt>
      <trkpt lat="44.924" lon="0.90973">
        <ele>176.208</ele>
        <time>2017-03-29T17:21:12Z</time>
      </trkpt>
      <trkpt lat="44.92393" lon="0.91148">
        <ele>176.725</ele>
        <time>2017-03-29T17:21:32Z</time>
      </trkpt>
      <trkpt lat="44.92376" lon="0.91258">
        <ele>176.09</ele>
        <time>2017-03-29T17:21:52Z</time>
      </trkpt>
      <trkpt lat="44.92304" lon="0.91567">
        <ele>178.18</ele>
        <time>2017-03-29T17:22:12Z</time>
      </trkpt>
      <trkpt lat="44.92276" lon="0.91672">
        <ele>174.912</ele>
        <time>2020-03-06T14:45:47Z</time>
      </trkpt>
      <trkpt lat="44.92214" lon="0.91649">
        <ele>176.754</ele>
        <time>2020-03-06T14:46:07Z</time>
      </trkpt>
      <trkpt lat="44.92209" lon="0.91496">
        <ele>177.625</ele>
        <time>2020-03-06T14:46:27Z</time>
      </trkpt>
      <trkpt lat="44.92178" lon="0.91469">
        <ele>181.731</ele>
        <time>2020-03-06T14:46:47Z</time>
      </trkpt>
      <trkpt lat="44.92166" lon="0.91415">
        <ele>180.063</ele>
        <time>2020-03-06T14:47:07Z</time>
      </trkpt>
      <trkpt lat="44.92129" lon="0.91389">
        <ele>180.497</ele>
        <time>2020-03-06T14:47:27Z</time>
      </trkpt>
      <trkpt lat="44.92069" lon="0.91392">
        <ele>180.223</ele>
        <time>2020-03-06T14:47:47Z</time>
      </trkpt>
      <trkpt lat="44.92039" lon="0.91231">
        <ele>173.825</ele>
        <time>2020-03-06T14:48:07Z</time>
      </trkpt>
      <trkpt lat="44.91954" lon="0.91277">
        <ele>163.108</ele>
        <time>2020-03-06T14:48:27Z</time>
      </trkpt>
      <trkpt lat="44.91935" lon="0.91337">
        <ele>161.955</ele>
        <time>2020-03-06T14:48:47Z</time>
      </trkpt>
      <trkpt lat="44.91772" lon="0.91568">
        <ele>161.55</ele>
        <time>2020-03-06T14:49:07Z</time>
      </trkpt>
      <trkpt lat="44.91818" lon="0.91633">
        <ele>162.48</ele>
        <time>2020-03-06T14:49:27Z</time>
      </trkpt>
      <trkpt lat="44.91823" lon="0.9167">
        <ele>155.552</ele>
        <time>2020-03-06T14:49:47Z</time>
      </trkpt>
      <trkpt lat="44.91811" lon="0.91759">
        <ele>130.384</ele>
        <time>2020-03-06T14:50:07Z</time>
      </trkpt>
      <trkpt lat="44.91821" lon="0.91788">
        <ele>126.955</ele>
        <time>2020-03-06T14:50:27Z</time>
      </trkpt>
      <trkpt lat="44.91813" lon="0.91801">
        <ele>120.871</ele>
        <time>2020-03-06T14:50:47Z</time>
      </trkpt>
      <trkpt lat="44.91822" lon="0.91828">
        <ele>117.573</ele>
        <time>2020-03-06T14:51:07Z</time>
      </trkpt>
      <trkpt lat="44.91815" lon="0.91866">
        <ele>106.416</ele>
        <time>2020-03-06T14:51:27Z</time>
      </trkpt>
      <trkpt lat="44.91818" lon="0.91967">
        <ele>92.176</ele>
        <time>2020-03-06T14:51:47Z</time>
      </trkpt>
      <trkpt lat="44.91836" lon="0.92019">
        <ele>86.813</ele>
        <time>2020-03-06T14:52:07Z</time>
      </trkpt>
      <trkpt lat="44.91838" lon="0.92062">
        <ele>79.608</ele>
        <time>2020-03-06T14:52:27Z</time>
      </trkpt>
      <trkpt lat="44.91829" lon="0.92082">
        <ele>73.967</ele>
        <time>2020-03-06T14:52:47Z</time>
      </trkpt>
      <trkpt lat="44.91806" lon="0.92105">
        <ele>66.232</ele>
        <time>2020-03-06T14:53:07Z</time>
      </trkpt>
      <trkpt lat="44.91826" lon="0.92313">
        <ele>64.952</ele>
        <time>2020-03-06T14:53:27Z</time>
      </trkpt>
      <trkpt lat="44.91838" lon="0.9237">
        <ele>63.914</ele>
        <time>2020-03-06T14:53:47Z</time>
      </trkpt>
      <trkpt lat="44.91882" lon="0.92455">
        <ele>59.626</ele>
        <time>2020-03-06T14:54:07Z</time>
      </trkpt>
      <trkpt lat="44.91873" lon="0.9247">
        <ele>58.097</ele>
        <time>2017-03-29T17:26:32Z</time>
      </trkpt>
      <trkpt lat="44.91832" lon="0.92663">
        <ele>59.563</ele>
        <time>2017-03-29T17:26:52Z</time>
      </trkpt>
      <trkpt lat="44.91824" lon="0.92734">
        <ele>63.825</ele>
        <time>2017-03-29T17:27:12Z</time>
      </trkpt>
      <trkpt lat="44.91838" lon="0.92751">
        <ele>65.085</ele>
        <time>2017-03-29T17:27:32Z</time>
      </trkpt>
    </trkseg>
  </trk>
</gpx>